Time;durP1;ratioP1;P1;durP2;ratioP2;P2;SDS_P1;SDS_P2;PMS_P1;PMS_P2;Temp;Humidity;BMP_temperature;BMP_pressure;BME280_temperature;BME280_humidity;BME280_pressure;Samples;Min_cycle;Max_cycle;Signal;HPM_P1;HPM_P2
2022/07/02 00:01:10;;;;;;;;;;;26.80;97.00;;;;;;5063852;28;19944;-49
2022/07/02 00:03:37;;;;;;;;;;;26.80;97.10;;;;;;5065196;28;19912;-47
2022/07/02 00:06:04;;;;;;;;;;;26.80;97.00;;;;;;5064467;28;19944;-48
2022/07/02 00:08:31;;;;;;;;;;;26.90;97.00;;;;;;5064797;28;19971;-48
2022/07/02 00:10:58;;;;;;;;;;;26.90;97.00;;;;;;5065433;28;20179;-45
2022/07/02 00:13:25;;;;;;;;;;;26.90;97.00;;;;;;5064964;28;20208;-51
2022/07/02 00:15:52;;;;;;;;;;;26.90;97.20;;;;;;5063766;28;19964;-45
2022/07/02 00:18:19;;;;;;;;;;;26.90;97.10;;;;;;5064894;28;19905;-45
2022/07/02 00:20:45;;;;;;;;;;;26.90;97.10;;;;;;5063736;28;19951;-46
2022/07/02 00:23:12;;;;;;;;;;;26.90;97.30;;;;;;5063592;28;19932;-46
2022/07/02 00:25:39;;;;;;;;;;;26.90;97.00;;;;;;5064842;28;19908;-46
2022/07/02 00:28:11;;;;;;;;;;;26.90;97.10;;;;;;5064176;28;19923;-45
2022/07/02 00:30:39;;;;;;;;;;;26.90;97.00;;;;;;5061075;28;20089;-49
2022/07/02 00:33:06;;;;;;;;;;;26.90;97.20;;;;;;5064301;28;19901;-49
2022/07/02 00:35:32;;;;;;;;;;;26.90;97.10;;;;;;5063692;28;19916;-54
2022/07/02 00:38:01;;;;;;;;;;;26.90;97.10;;;;;;5064317;28;19935;-44
2022/07/02 00:40:28;;;;;;;;;;;26.90;97.00;;;;;;5064693;28;20176;-45
2022/07/02 00:42:54;;;;;;;;;;;26.90;96.80;;;;;;5064556;28;20209;-45
2022/07/02 00:45:20;;;;;;;;;;;26.90;96.80;;;;;;5064243;28;20088;-47
2022/07/02 00:47:47;;;;;;;;;;;26.80;96.80;;;;;;5064333;28;20189;-48
2022/07/02 00:50:14;;;;;;;;;;;26.90;97.00;;;;;;5063356;28;19908;-48
2022/07/02 00:52:40;;;;;;;;;;;26.90;97.10;;;;;;5063834;28;19905;-45
2022/07/02 00:55:06;;;;;;;;;;;26.80;97.00;;;;;;5064135;28;20264;-48
2022/07/02 00:57:33;;;;;;;;;;;26.90;97.00;;;;;;5063990;28;19907;-50
2022/07/02 00:59:59;;;;;;;;;;;26.80;97.00;;;;;;5064400;28;19991;-48
2022/07/02 01:02:26;;;;;;;;;;;26.70;97.10;;;;;;5064177;28;19920;-45
2022/07/02 01:04:52;;;;;;;;;;;26.70;97.20;;;;;;5064035;28;19951;-46
2022/07/02 01:07:19;;;;;;;;;;;26.70;97.20;;;;;;5063362;28;19935;-49
2022/07/02 01:12:31;;;;;;;;;;;26.80;97.00;;;;;;5053011;28;20015;-55
2022/07/02 01:14:57;;;;;;;;;;;26.80;96.90;;;;;;5059785;28;19950;-53
2022/07/02 01:17:24;;;;;;;;;;;26.80;96.80;;;;;;5064473;28;20141;-51
2022/07/02 01:19:50;;;;;;;;;;;26.80;96.80;;;;;;5064610;28;19912;-52
2022/07/02 01:22:20;;;;;;;;;;;26.80;96.80;;;;;;5064491;28;19945;-53
2022/07/02 01:24:48;;;;;;;;;;;26.80;96.80;;;;;;5063533;28;19916;-49
2022/07/02 01:27:15;;;;;;;;;;;26.90;96.80;;;;;;5064132;28;19963;-52
2022/07/02 01:29:41;;;;;;;;;;;26.90;96.80;;;;;;5064261;28;19909;-53
2022/07/02 01:32:08;;;;;;;;;;;26.90;96.70;;;;;;5064503;28;20019;-50
2022/07/02 01:34:36;;;;;;;;;;;26.90;97.00;;;;;;5064048;28;19909;-51
2022/07/02 01:37:03;;;;;;;;;;;26.90;96.70;;;;;;5063808;28;19964;-49
2022/07/02 01:39:29;;;;;;;;;;;26.90;96.70;;;;;;5064127;28;20184;-48
2022/07/02 01:41:55;;;;;;;;;;;26.90;96.70;;;;;;5061118;28;19920;-50
2022/07/02 01:44:21;;;;;;;;;;;26.80;96.60;;;;;;5056733;28;19921;-57
2022/07/02 01:46:47;;;;;;;;;;;26.90;96.70;;;;;;5047596;28;19901;-48
2022/07/02 01:49:14;;;;;;;;;;;26.90;96.70;;;;;;5047869;28;19901;-48
2022/07/02 01:51:40;;;;;;;;;;;26.80;96.70;;;;;;5047884;28;19897;-50
2022/07/02 01:54:07;;;;;;;;;;;26.90;96.70;;;;;;5047683;28;19901;-51
2022/07/02 01:56:33;;;;;;;;;;;26.80;96.70;;;;;;5047628;28;19901;-48
2022/07/02 01:59:00;;;;;;;;;;;26.90;96.70;;;;;;5047443;28;19912;-55
2022/07/02 02:01:26;;;;;;;;;;;26.90;96.70;;;;;;5047178;28;19917;-49
2022/07/02 02:03:53;;;;;;;;;;;26.90;96.70;;;;;;5047525;28;19904;-50
2022/07/02 02:06:19;;;;;;;;;;;26.90;96.60;;;;;;5047699;28;19909;-51
2022/07/02 02:08:45;;;;;;;;;;;26.90;96.60;;;;;;5047648;28;19993;-48
2022/07/02 02:11:11;;;;;;;;;;;26.90;96.60;;;;;;5047847;28;19909;-56
2022/07/02 02:13:37;;;;;;;;;;;26.80;96.50;;;;;;5063679;28;19905;-51
2022/07/02 02:16:03;;;;;;;;;;;26.80;96.60;;;;;;5066804;28;20119;-52
2022/07/02 02:18:29;;;;;;;;;;;26.80;96.50;;;;;;5066586;28;20128;-52
2022/07/02 02:20:55;;;;;;;;;;;26.80;96.50;;;;;;5067348;28;19916;-51
2022/07/02 02:23:22;;;;;;;;;;;26.80;96.50;;;;;;5067241;28;19973;-53
2022/07/02 02:25:48;;;;;;;;;;;26.80;96.50;;;;;;5066947;28;19916;-52
2022/07/02 02:28:14;;;;;;;;;;;26.80;96.50;;;;;;5066937;28;19904;-50
2022/07/02 02:30:40;;;;;;;;;;;26.80;96.40;;;;;;5067460;28;19917;-51
2022/07/02 02:33:06;;;;;;;;;;;26.80;96.40;;;;;;5063332;28;19909;-54
2022/07/02 02:35:32;;;;;;;;;;;26.80;96.50;;;;;;5057959;28;19963;-49
2022/07/02 02:37:58;;;;;;;;;;;26.80;96.50;;;;;;5051811;28;19929;-48
2022/07/02 02:40:25;;;;;;;;;;;26.80;96.50;;;;;;5060040;28;20227;-54
2022/07/02 02:42:51;;;;;;;;;;;26.70;96.40;;;;;;5066804;28;20010;-55
2022/07/02 02:45:17;;;;;;;;;;;26.70;96.40;;;;;;5066997;28;19931;-53
2022/07/02 02:47:43;;;;;;;;;;;26.70;96.40;;;;;;5066770;28;19924;-48
2022/07/02 02:50:09;;;;;;;;;;;26.70;96.40;;;;;;5066615;28;19916;-50
2022/07/02 02:52:35;;;;;;;;;;;26.70;96.40;;;;;;5066434;28;20189;-48
2022/07/02 02:55:02;;;;;;;;;;;26.70;96.40;;;;;;5065641;28;20127;-53
2022/07/02 02:57:28;;;;;;;;;;;26.70;96.40;;;;;;5066410;28;19908;-51
2022/07/02 02:59:54;;;;;;;;;;;26.70;96.40;;;;;;5066441;28;20026;-48
2022/07/02 03:02:20;;;;;;;;;;;26.70;96.30;;;;;;5066288;28;19948;-49
2022/07/02 03:04:46;;;;;;;;;;;26.70;96.30;;;;;;5066585;28;19909;-48
2022/07/02 03:07:14;;;;;;;;;;;26.70;96.30;;;;;;5066225;28;19921;-51
2022/07/02 03:09:41;;;;;;;;;;;26.70;96.30;;;;;;5066551;28;20070;-48
2022/07/02 03:12:07;;;;;;;;;;;26.60;96.20;;;;;;5065765;28;19905;-48
2022/07/02 03:14:34;;;;;;;;;;;26.60;96.20;;;;;;5066131;28;19908;-51
2022/07/02 03:17:00;;;;;;;;;;;26.60;96.10;;;;;;5066293;28;20028;-52
2022/07/02 03:19:26;;;;;;;;;;;26.60;96.10;;;;;;5066148;28;19908;-50
2022/07/02 03:21:52;;;;;;;;;;;26.60;96.10;;;;;;5066090;28;19971;-50
2022/07/02 03:24:19;;;;;;;;;;;26.60;96.10;;;;;;5065764;28;20168;-49
2022/07/02 03:26:45;;;;;;;;;;;26.60;96.10;;;;;;5065987;28;20003;-49
2022/07/02 03:29:11;;;;;;;;;;;26.60;96.00;;;;;;5065838;28;19901;-53
2022/07/02 03:31:37;;;;;;;;;;;26.60;96.10;;;;;;5065863;28;19905;-49
2022/07/02 03:34:03;;;;;;;;;;;26.60;96.10;;;;;;5065829;28;19947;-48
2022/07/02 03:36:29;;;;;;;;;;;26.50;96.10;;;;;;5065806;28;19904;-55
2022/07/02 03:38:55;;;;;;;;;;;26.50;96.00;;;;;;5065433;28;19981;-51
2022/07/02 03:41:21;;;;;;;;;;;26.50;96.00;;;;;;5066314;28;19932;-48
2022/07/02 03:43:50;;;;;;;;;;;26.50;96.10;;;;;;5065836;28;19912;-50
2022/07/02 03:46:16;;;;;;;;;;;26.50;96.00;;;;;;5065999;28;19935;-50
2022/07/02 03:48:43;;;;;;;;;;;26.50;96.00;;;;;;5065824;28;19904;-56
2022/07/02 03:51:09;;;;;;;;;;;26.50;96.00;;;;;;5066025;28;19947;-52
2022/07/02 03:53:35;;;;;;;;;;;26.50;95.90;;;;;;5065432;28;19905;-54
2022/07/02 03:56:02;;;;;;;;;;;26.50;96.00;;;;;;5065930;28;19905;-52
2022/07/02 03:58:30;;;;;;;;;;;26.40;95.90;;;;;;5065384;28;19908;-52
2022/07/02 04:00:57;;;;;;;;;;;26.40;95.80;;;;;;5058894;28;19905;-49
2022/07/02 04:03:24;;;;;;;;;;;26.40;95.80;;;;;;5045437;28;19983;-51
2022/07/02 04:05:50;;;;;;;;;;;26.40;95.70;;;;;;5046041;28;19905;-53
2022/07/02 04:08:16;;;;;;;;;;;26.40;95.70;;;;;;5045160;28;19909;-52
2022/07/02 04:10:42;;;;;;;;;;;26.40;95.80;;;;;;5045674;28;19908;-52
2022/07/02 04:13:10;;;;;;;;;;;26.40;95.80;;;;;;5045214;28;19940;-54
2022/07/02 04:15:37;;;;;;;;;;;26.40;95.70;;;;;;5045377;28;19901;-48
2022/07/02 04:18:03;;;;;;;;;;;26.30;95.60;;;;;;5045034;28;19909;-51
2022/07/02 04:20:29;;;;;;;;;;;26.30;95.60;;;;;;5045042;28;19901;-49
2022/07/02 04:22:55;;;;;;;;;;;26.30;95.60;;;;;;5044987;28;19980;-51
2022/07/02 04:25:21;;;;;;;;;;;26.30;95.50;;;;;;5045392;28;20194;-51
2022/07/02 04:27:47;;;;;;;;;;;26.30;95.50;;;;;;5045127;28;19909;-51
2022/07/02 04:30:14;;;;;;;;;;;26.30;95.50;;;;;;5048530;28;19969;-49
2022/07/02 04:32:40;;;;;;;;;;;26.30;95.50;;;;;;5052919;28;20144;-51
2022/07/02 04:35:06;;;;;;;;;;;26.30;95.50;;;;;;5045462;28;19947;-49
2022/07/02 04:37:32;;;;;;;;;;;26.30;95.50;;;;;;5044736;28;19905;-52
2022/07/02 04:39:58;;;;;;;;;;;26.30;95.60;;;;;;5044993;28;19909;-48
2022/07/02 04:42:24;;;;;;;;;;;26.20;95.50;;;;;;5045222;28;19905;-55
2022/07/02 04:44:50;;;;;;;;;;;26.30;95.50;;;;;;5059016;28;19912;-51
2022/07/02 04:47:17;;;;;;;;;;;26.20;95.50;;;;;;5064160;28;20252;-49
2022/07/02 04:49:43;;;;;;;;;;;26.20;95.50;;;;;;5044603;28;20139;-50
2022/07/02 04:52:09;;;;;;;;;;;26.20;95.50;;;;;;5044642;28;19920;-49
2022/07/02 04:54:35;;;;;;;;;;;26.20;95.50;;;;;;5044538;28;19905;-50
2022/07/02 04:57:01;;;;;;;;;;;26.20;95.60;;;;;;5044720;28;19909;-49
2022/07/02 04:59:27;;;;;;;;;;;26.20;95.60;;;;;;5044981;28;20126;-52
2022/07/02 05:01:53;;;;;;;;;;;26.20;95.70;;;;;;5044125;28;19986;-53
2022/07/02 05:04:19;;;;;;;;;;;26.20;95.70;;;;;;5044449;28;19901;-52
2022/07/02 05:06:45;;;;;;;;;;;26.20;95.70;;;;;;5044363;28;20086;-56
2022/07/02 05:09:12;;;;;;;;;;;26.20;95.70;;;;;;5044652;28;20124;-49
2022/07/02 05:11:38;;;;;;;;;;;26.20;95.70;;;;;;5044271;28;19936;-49
2022/07/02 05:14:04;;;;;;;;;;;26.20;95.70;;;;;;5044311;28;19908;-51
2022/07/02 05:19:33;;;;;;;;;;;26.20;95.80;;;;;;5044311;28;19932;-51
2022/07/02 05:21:59;;;;;;;;;;;26.20;95.80;;;;;;5044145;28;20157;-57
2022/07/02 05:24:25;;;;;;;;;;;26.20;95.80;;;;;;5044337;28;19905;-53
2022/07/02 05:26:52;;;;;;;;;;;26.20;95.80;;;;;;5044188;28;20154;-49
2022/07/02 05:29:36;;;;;;;;;;;26.10;95.80;;;;;;5043973;28;20119;-56
2022/07/02 06:26:50;;;;;;;;;;;26.00;95.90;;;;;;5043745;28;20152;-54
2022/07/02 06:29:16;;;;;;;;;;;26.10;95.90;;;;;;5043883;28;20190;-50
2022/07/02 06:31:42;;;;;;;;;;;26.10;95.90;;;;;;5047392;28;19905;-51
2022/07/02 06:34:08;;;;;;;;;;;26.00;95.90;;;;;;5047207;28;19901;-53
2022/07/02 06:36:34;;;;;;;;;;;26.10;95.90;;;;;;5047189;28;20195;-50
2022/07/02 06:39:00;;;;;;;;;;;26.00;95.90;;;;;;5046726;28;19951;-47
2022/07/02 06:44:10;;;;;;;;;;;26.00;95.80;;;;;;5046761;28;19907;-55
2022/07/02 06:46:37;;;;;;;;;;;26.00;95.80;;;;;;5046878;28;19905;-51
2022/07/02 06:49:03;;;;;;;;;;;26.00;95.80;;;;;;5046776;28;20205;-52
2022/07/02 06:51:29;;;;;;;;;;;26.00;95.80;;;;;;5046610;28;19909;-53
2022/07/02 06:54:00;;;;;;;;;;;26.00;95.90;;;;;;5046722;28;19941;-50
2022/07/02 06:56:27;;;;;;;;;;;26.00;95.90;;;;;;5052005;28;20215;-56
2022/07/02 06:58:53;;;;;;;;;;;26.00;95.90;;;;;;5066421;28;19905;-54
2022/07/02 07:01:38;;;;;;;;;;;26.00;96.00;;;;;;5066772;28;20295;-55
2022/07/02 07:04:04;;;;;;;;;;;26.00;96.00;;;;;;5066240;28;20097;-50
2022/07/02 07:06:37;;;;;;;;;;;26.00;96.10;;;;;;5066578;28;19972;-49
2022/07/02 07:09:03;;;;;;;;;;;26.00;96.10;;;;;;5066375;28;19972;-51
2022/07/02 07:11:29;;;;;;;;;;;26.00;96.10;;;;;;5066241;28;19936;-51
2022/07/02 07:16:40;;;;;;;;;;;26.00;96.20;;;;;;5066167;28;20140;-50
2022/07/02 07:19:06;;;;;;;;;;;25.90;96.10;;;;;;5066207;28;20189;-53
2022/07/02 07:21:32;;;;;;;;;;;25.90;96.10;;;;;;5066199;28;19946;-48
2022/07/02 07:23:58;;;;;;;;;;;25.90;96.10;;;;;;5066077;28;20092;-49
2022/07/02 07:26:24;;;;;;;;;;;25.90;96.10;;;;;;5066774;28;19912;-50
2022/07/02 07:28:50;;;;;;;;;;;25.90;96.10;;;;;;5066088;28;19905;-55
2022/07/02 07:31:20;;;;;;;;;;;25.90;96.10;;;;;;5066452;28;19932;-54
2022/07/02 07:33:46;;;;;;;;;;;25.90;96.10;;;;;;5066312;28;19917;-56
2022/07/02 07:36:13;;;;;;;;;;;25.90;96.10;;;;;;5065873;28;19912;-56
2022/07/02 07:38:39;;;;;;;;;;;25.90;96.10;;;;;;5065888;28;20169;-49
2022/07/02 07:41:05;;;;;;;;;;;25.90;96.10;;;;;;5065709;28;20196;-49
2022/07/02 07:43:31;;;;;;;;;;;25.90;96.00;;;;;;5065894;28;19911;-51
2022/07/02 07:45:57;;;;;;;;;;;25.90;96.00;;;;;;5066133;28;19905;-53
2022/07/02 07:48:23;;;;;;;;;;;25.90;96.00;;;;;;5065624;28;19905;-49
2022/07/02 07:50:50;;;;;;;;;;;25.90;96.10;;;;;;5065983;28;19905;-50
2022/07/02 07:53:16;;;;;;;;;;;25.90;96.00;;;;;;5065499;28;19943;-59
2022/07/02 07:55:42;;;;;;;;;;;25.80;96.10;;;;;;5065844;28;19905;-52
2022/07/02 07:58:08;;;;;;;;;;;25.90;96.10;;;;;;5065524;28;20101;-49
2022/07/02 08:00:34;;;;;;;;;;;25.80;96.10;;;;;;5065896;28;19909;-55
2022/07/02 08:03:00;;;;;;;;;;;25.80;96.00;;;;;;5065198;28;19920;-54
2022/07/02 08:05:26;;;;;;;;;;;25.80;96.00;;;;;;5065717;28;19904;-53
2022/07/02 08:07:53;;;;;;;;;;;25.80;96.00;;;;;;5065440;28;19905;-54
2022/07/02 08:10:19;;;;;;;;;;;25.80;96.00;;;;;;5065286;28;19912;-52
2022/07/02 08:12:46;;;;;;;;;;;25.80;96.10;;;;;;5065147;28;19936;-56
2022/07/02 08:15:13;;;;;;;;;;;25.80;96.10;;;;;;5065474;28;19905;-54
2022/07/02 08:17:39;;;;;;;;;;;25.80;96.00;;;;;;5065032;28;19905;-56
2022/07/02 08:20:05;;;;;;;;;;;25.80;96.00;;;;;;5064849;28;19916;-54
2022/07/02 08:22:35;;;;;;;;;;;25.80;96.00;;;;;;5065144;28;20193;-53
2022/07/02 08:25:02;;;;;;;;;;;25.80;96.00;;;;;;5065041;28;19974;-52
2022/07/02 08:27:28;;;;;;;;;;;25.80;95.90;;;;;;5065339;28;19913;-53
2022/07/02 08:29:55;;;;;;;;;;;25.80;96.00;;;;;;5065006;28;19928;-55
2022/07/02 08:38:27;;;;;;;;;;;25.70;95.90;;;;;;5065522;28;20180;-52
2022/07/02 08:40:53;;;;;;;;;;;25.70;95.90;;;;;;5065247;28;19971;-54
2022/07/02 08:43:23;;;;;;;;;;;25.70;96.00;;;;;;5064812;28;20247;-56
2022/07/02 08:45:51;;;;;;;;;;;25.70;96.00;;;;;;5065269;28;20028;-51
2022/07/02 08:48:18;;;;;;;;;;;25.70;96.00;;;;;;5064574;28;19936;-49
2022/07/02 08:50:45;;;;;;;;;;;25.70;96.00;;;;;;5065014;28;20181;-51
2022/07/02 08:53:12;;;;;;;;;;;25.70;96.00;;;;;;5063919;28;20189;-52
2022/07/02 08:55:39;;;;;;;;;;;25.70;96.00;;;;;;5064908;28;19904;-53
2022/07/02 08:58:06;;;;;;;;;;;25.70;96.00;;;;;;5064262;28;19955;-52
2022/07/02 09:00:32;;;;;;;;;;;25.70;96.00;;;;;;5064596;28;19904;-53
2022/07/02 09:02:59;;;;;;;;;;;25.70;96.00;;;;;;5064709;28;19916;-53
2022/07/02 09:05:26;;;;;;;;;;;25.70;96.00;;;;;;5064330;28;20139;-51
2022/07/02 09:07:52;;;;;;;;;;;25.70;96.00;;;;;;5064411;28;19904;-53
2022/07/02 09:10:19;;;;;;;;;;;25.70;96.00;;;;;;5064541;28;19905;-54
2022/07/02 09:12:45;;;;;;;;;;;25.70;96.00;;;;;;5064368;28;19912;-51
2022/07/02 09:15:12;;;;;;;;;;;25.70;96.00;;;;;;5064476;28;20085;-54
2022/07/02 09:17:39;;;;;;;;;;;25.60;96.00;;;;;;5064403;28;19953;-56
2022/07/02 09:20:06;;;;;;;;;;;25.70;96.00;;;;;;5064503;28;19927;-53
2022/07/02 09:22:33;;;;;;;;;;;25.60;96.20;;;;;;5064138;28;19911;-53
2022/07/02 09:25:10;;;;;;;;;;;25.60;96.00;;;;;;5064195;28;19904;-52
2022/07/02 09:27:36;;;;;;;;;;;25.60;95.90;;;;;;5064378;28;19912;-50
2022/07/02 09:30:03;;;;;;;;;;;25.60;95.90;;;;;;5064794;28;19905;-49
2022/07/02 09:32:36;;;;;;;;;;;25.60;95.90;;;;;;5064124;28;19911;-54
2022/07/02 09:35:02;;;;;;;;;;;25.50;95.90;;;;;;5064253;28;20177;-54
2022/07/02 09:37:29;;;;;;;;;;;25.60;95.90;;;;;;5064212;28;19912;-53
2022/07/02 09:40:00;;;;;;;;;;;25.50;95.90;;;;;;5064012;28;20208;-52
2022/07/02 09:42:27;;;;;;;;;;;25.60;95.90;;;;;;5063993;28;19968;-51
2022/07/02 09:44:53;;;;;;;;;;;25.50;95.80;;;;;;5064167;28;19975;-51
2022/07/02 09:47:32;;;;;;;;;;;25.50;95.80;;;;;;5063788;28;19905;-51
2022/07/02 09:50:02;;;;;;;;;;;25.50;95.80;;;;;;5063955;28;19905;-56
2022/07/02 09:52:28;;;;;;;;;;;25.50;95.80;;;;;;5063794;28;19951;-50
2022/07/02 09:54:54;;;;;;;;;;;25.50;95.80;;;;;;5064057;28;19911;-49
2022/07/02 09:57:20;;;;;;;;;;;25.50;95.80;;;;;;5063862;28;19912;-55
2022/07/02 09:59:46;;;;;;;;;;;25.50;95.80;;;;;;5063823;28;19908;-55
2022/07/02 10:02:21;;;;;;;;;;;25.50;95.80;;;;;;5063799;28;19917;-50
2022/07/02 10:04:49;;;;;;;;;;;25.50;95.70;;;;;;5066768;28;19940;-53
2022/07/02 10:07:15;;;;;;;;;;;25.50;95.70;;;;;;5067576;28;19954;-51
2022/07/02 10:09:42;;;;;;;;;;;25.40;95.70;;;;;;5067684;28;19901;-54
2022/07/02 10:12:08;;;;;;;;;;;25.40;95.70;;;;;;5067477;28;19932;-51
2022/07/02 10:14:34;;;;;;;;;;;25.40;95.70;;;;;;5067340;28;19943;-52
2022/07/02 10:17:01;;;;;;;;;;;25.40;95.70;;;;;;5067525;28;19909;-50
2022/07/02 10:19:28;;;;;;;;;;;25.40;95.60;;;;;;5067284;28;19909;-53
2022/07/02 10:21:56;;;;;;;;;;;25.40;95.60;;;;;;5067310;28;19908;-51
2022/07/02 10:24:23;;;;;;;;;;;25.40;95.60;;;;;;5067385;28;19900;-54
2022/07/02 10:26:50;;;;;;;;;;;25.40;95.60;;;;;;5067357;28;19915;-52
2022/07/02 10:29:17;;;;;;;;;;;25.40;95.60;;;;;;5067133;28;20074;-49
2022/07/02 10:31:47;;;;;;;;;;;25.40;95.70;;;;;;5067322;28;19908;-53
2022/07/02 10:34:39;;;;;;;;;;;25.40;95.70;;;;;;5067153;28;19901;-57
2022/07/02 10:37:06;;;;;;;;;;;25.40;95.70;;;;;;5043943;28;19915;-52
2022/07/02 10:39:42;;;;;;;;;;;25.40;95.70;;;;;;5066996;28;19911;-53
2022/07/02 10:42:08;;;;;;;;;;;25.40;95.60;;;;;;5066823;28;19908;-56
2022/07/02 10:44:38;;;;;;;;;;;25.30;95.70;;;;;;5066969;28;19900;-57
2022/07/02 10:47:05;;;;;;;;;;;25.40;95.70;;;;;;5066836;28;19916;-51
2022/07/02 10:49:32;;;;;;;;;;;25.30;95.70;;;;;;5066831;28;19901;-53
2022/07/02 10:51:58;;;;;;;;;;;25.30;95.80;;;;;;5067006;28;19915;-50
2022/07/02 10:54:33;;;;;;;;;;;25.30;95.90;;;;;;5066672;28;19900;-50
2022/07/02 10:56:59;;;;;;;;;;;25.30;95.90;;;;;;5067148;28;19908;-52
2022/07/02 10:59:27;;;;;;;;;;;25.30;95.90;;;;;;5066540;28;19905;-54
2022/07/02 11:02:00;;;;;;;;;;;25.30;95.90;;;;;;5066392;28;19917;-58
2022/07/02 11:04:26;;;;;;;;;;;25.30;96.00;;;;;;5066636;28;20139;-49
2022/07/02 11:07:03;;;;;;;;;;;25.30;96.00;;;;;;5066627;28;19905;-52
2022/07/02 11:09:29;;;;;;;;;;;25.30;96.00;;;;;;5066334;28;20062;-54
2022/07/02 11:12:01;;;;;;;;;;;25.30;96.00;;;;;;5066413;28;19976;-54
2022/07/02 11:14:29;;;;;;;;;;;25.30;96.00;;;;;;5066048;28;19911;-55
2022/07/02 11:16:56;;;;;;;;;;;25.30;96.00;;;;;;5065738;28;19912;-52
2022/07/02 11:19:31;;;;;;;;;;;25.30;96.00;;;;;;5066210;28;19987;-51
2022/07/02 11:21:59;;;;;;;;;;;25.30;96.00;;;;;;5065989;28;19912;-52
2022/07/02 11:24:32;;;;;;;;;;;25.30;96.00;;;;;;5066263;28;20181;-54
2022/07/02 11:26:58;;;;;;;;;;;25.30;96.10;;;;;;5066439;28;20144;-49
2022/07/02 11:29:25;;;;;;;;;;;25.40;96.20;;;;;;5066181;28;19949;-52
2022/07/02 11:31:52;;;;;;;;;;;25.40;96.20;;;;;;5066118;28;19950;-64
2022/07/02 11:35:02;;;;;;;;;;;25.40;96.10;;;;;;5123051;27;19947;-48
2022/07/02 11:37:28;;;;;;;;;;;25.40;96.40;;;;;;5122544;28;19908;-48
2022/07/02 11:39:54;;;;;;;;;;;25.40;96.40;;;;;;5122439;28;19946;-48
2022/07/02 11:42:33;;;;;;;;;;;25.40;96.30;;;;;;5122286;28;19904;-49
2022/07/02 11:45:00;;;;;;;;;;;25.40;96.30;;;;;;5122366;28;19904;-49
2022/07/02 11:47:26;;;;;;;;;;;25.50;96.30;;;;;;5122224;28;20097;-48
2022/07/02 11:49:52;;;;;;;;;;;25.50;96.30;;;;;;5122194;28;19911;-54
2022/07/02 11:52:18;;;;;;;;;;;25.50;96.40;;;;;;5122196;28;19904;-48
2022/07/02 11:54:45;;;;;;;;;;;25.50;96.40;;;;;;5122019;28;19911;-50
2022/07/02 11:57:11;;;;;;;;;;;25.50;96.40;;;;;;5122307;28;19939;-52
2022/07/02 11:59:37;;;;;;;;;;;25.50;96.40;;;;;;5122123;28;20034;-51
2022/07/02 12:02:03;;;;;;;;;;;25.50;96.40;;;;;;5121725;28;19936;-55
2022/07/02 12:04:29;;;;;;;;;;;25.60;96.50;;;;;;5122892;28;19912;-48
2022/07/02 12:06:57;;;;;;;;;;;25.70;96.50;;;;;;5121865;28;19904;-48
2022/07/02 12:09:25;;;;;;;;;;;25.70;96.50;;;;;;5122381;28;19918;-55
2022/07/02 12:11:51;;;;;;;;;;;25.70;96.50;;;;;;5121629;28;19935;-54
2022/07/02 12:14:23;;;;;;;;;;;25.70;96.50;;;;;;5122114;28;19916;-47
2022/07/02 12:16:51;;;;;;;;;;;25.80;96.50;;;;;;5121751;28;19904;-51
2022/07/02 12:19:18;;;;;;;;;;;25.80;96.40;;;;;;5121936;28;19912;-52
2022/07/02 12:21:45;;;;;;;;;;;25.90;96.40;;;;;;5121565;28;19939;-51
2022/07/02 12:24:21;;;;;;;;;;;25.90;96.30;;;;;;5121929;28;20180;-47
2022/07/02 12:26:48;;;;;;;;;;;26.00;96.20;;;;;;5121263;28;19904;-47
2022/07/02 12:32:06;;;;;;;;;;;26.10;95.90;;;;;;5121278;28;19946;-52
2022/07/02 12:34:37;;;;;;;;;;;26.10;95.90;;;;;;5120740;28;19959;-54
2022/07/02 12:37:03;;;;;;;;;;;26.10;95.90;;;;;;5121525;28;19927;-48
2022/07/02 12:39:39;;;;;;;;;;;26.20;95.80;;;;;;5121084;28;20145;-57
2022/07/02 12:42:23;;;;;;;;;;;26.20;95.80;;;;;;5120992;28;19904;-49
2022/07/02 12:44:53;;;;;;;;;;;26.20;95.60;;;;;;5114419;28;19912;-49
2022/07/02 12:47:23;;;;;;;;;;;26.20;95.70;;;;;;5107429;28;20188;-51
2022/07/02 12:49:57;;;;;;;;;;;26.30;95.70;;;;;;5107778;28;19935;-60
2022/07/02 12:52:23;;;;;;;;;;;26.30;95.70;;;;;;5107077;28;20185;-57
2022/07/02 12:54:49;;;;;;;;;;;26.30;95.90;;;;;;5107351;28;19927;-59
2022/07/02 12:57:19;;;;;;;;;;;26.40;95.90;;;;;;5106984;28;20100;-51
2022/07/02 12:59:46;;;;;;;;;;;26.40;95.80;;;;;;5107234;28;19904;-53
2022/07/02 13:02:17;;;;;;;;;;;26.40;95.70;;;;;;5107042;28;19904;-52
2022/07/02 13:04:44;;;;;;;;;;;26.40;95.70;;;;;;5107018;28;19911;-48
2022/07/02 13:07:11;;;;;;;;;;;26.50;95.70;;;;;;5106768;28;20194;-56
2022/07/02 13:09:37;;;;;;;;;;;26.50;95.70;;;;;;5107251;28;20191;-54
2022/07/02 13:12:04;;;;;;;;;;;26.50;95.60;;;;;;5106844;28;19904;-52
2022/07/02 13:14:30;;;;;;;;;;;26.50;95.60;;;;;;5107208;28;19923;-55
2022/07/02 13:16:56;;;;;;;;;;;26.50;95.60;;;;;;5106663;28;19988;-51
2022/07/02 13:19:22;;;;;;;;;;;26.50;95.70;;;;;;5107067;28;19919;-54
2022/07/02 13:21:49;;;;;;;;;;;26.60;95.70;;;;;;5106686;28;19910;-52
2022/07/02 13:24:15;;;;;;;;;;;26.60;95.70;;;;;;5106441;28;19975;-57
2022/07/02 13:26:41;;;;;;;;;;;26.60;95.70;;;;;;5106674;28;19904;-50
2022/07/02 13:29:07;;;;;;;;;;;26.60;95.60;;;;;;5107002;28;19912;-49
2022/07/02 13:31:33;;;;;;;;;;;26.60;95.70;;;;;;5106371;28;19905;-53
2022/07/02 13:34:00;;;;;;;;;;;26.60;95.60;;;;;;5106210;28;20026;-48
2022/07/02 13:36:26;;;;;;;;;;;26.60;95.60;;;;;;5106305;28;19904;-47
2022/07/02 13:38:52;;;;;;;;;;;26.60;95.60;;;;;;5106029;28;19918;-55
2022/07/02 13:41:19;;;;;;;;;;;26.70;95.80;;;;;;5106164;28;19927;-47
2022/07/02 13:43:45;;;;;;;;;;;26.70;95.80;;;;;;5106372;28;19947;-56
2022/07/02 13:46:11;;;;;;;;;;;26.70;95.80;;;;;;5105849;28;20131;-53
2022/07/02 13:48:37;;;;;;;;;;;26.70;95.80;;;;;;5106414;28;19912;-48
2022/07/02 13:51:03;;;;;;;;;;;26.70;95.70;;;;;;5105865;28;19975;-47
2022/07/02 13:53:29;;;;;;;;;;;26.70;95.90;;;;;;5105897;28;19924;-48
2022/07/02 13:55:55;;;;;;;;;;;26.70;96.00;;;;;;5105147;28;19905;-48
2022/07/02 13:58:21;;;;;;;;;;;26.70;96.00;;;;;;5105723;28;19912;-46
2022/07/02 14:00:48;;;;;;;;;;;26.70;95.90;;;;;;5105539;28;19971;-51
2022/07/02 14:03:14;;;;;;;;;;;26.70;95.80;;;;;;5105925;28;19919;-48
2022/07/02 14:05:40;;;;;;;;;;;26.70;95.90;;;;;;5105703;28;19904;-47
2022/07/02 14:08:06;;;;;;;;;;;26.80;95.90;;;;;;5105450;28;20216;-50
2022/07/02 14:10:32;;;;;;;;;;;26.70;95.90;;;;;;5105468;28;19904;-48
2022/07/02 14:12:58;;;;;;;;;;;26.80;95.80;;;;;;5112233;28;19920;-48
2022/07/02 14:15:25;;;;;;;;;;;26.80;96.00;;;;;;5125742;28;19904;-46
2022/07/02 14:17:51;;;;;;;;;;;26.80;96.10;;;;;;5125794;28;19918;-47
2022/07/02 14:20:17;;;;;;;;;;;26.80;96.00;;;;;;5125913;28;19927;-47
2022/07/02 14:22:45;;;;;;;;;;;26.80;95.90;;;;;;5126023;28;19919;-46
2022/07/02 14:25:11;;;;;;;;;;;26.80;96.00;;;;;;5125421;28;19916;-49
2022/07/02 14:27:37;;;;;;;;;;;26.90;96.00;;;;;;5125819;28;20179;-49
2022/07/02 14:30:03;;;;;;;;;;;26.80;96.10;;;;;;5125664;28;19935;-47
2022/07/02 14:32:30;;;;;;;;;;;26.90;96.00;;;;;;5125156;28;19910;-48
2022/07/02 14:34:56;;;;;;;;;;;26.90;96.00;;;;;;5125681;28;20207;-50
2022/07/02 14:37:29;;;;;;;;;;;26.90;95.90;;;;;;5125502;28;19904;-50
2022/07/02 14:39:55;;;;;;;;;;;26.90;95.80;;;;;;5107209;28;20188;-48
2022/07/02 14:42:21;;;;;;;;;;;26.90;95.90;;;;;;5125410;28;19904;-50
2022/07/02 14:44:47;;;;;;;;;;;26.90;95.80;;;;;;5125470;28;19977;-47
2022/07/02 14:47:13;;;;;;;;;;;27.00;95.80;;;;;;5125176;28;19903;-49
2022/07/02 14:49:40;;;;;;;;;;;27.00;95.80;;;;;;5125358;28;19908;-49
2022/07/02 14:52:07;;;;;;;;;;;27.00;95.70;;;;;;5125438;28;19903;-54
2022/07/02 14:54:33;;;;;;;;;;;27.10;95.70;;;;;;5125675;28;19962;-53
2022/07/02 14:56:59;;;;;;;;;;;27.10;95.40;;;;;;5125488;28;19904;-50
2022/07/02 14:59:25;;;;;;;;;;;27.10;95.30;;;;;;5125658;28;19912;-56
2022/07/02 15:01:51;;;;;;;;;;;27.10;94.90;;;;;;5124762;28;19915;-54
2022/07/02 15:04:17;;;;;;;;;;;27.20;95.20;;;;;;5125404;28;19911;-51
2022/07/02 15:06:43;;;;;;;;;;;27.20;95.20;;;;;;5125071;28;19905;-48
2022/07/02 15:09:10;;;;;;;;;;;27.30;95.50;;;;;;5125160;28;20232;-50
2022/07/02 15:11:36;;;;;;;;;;;27.30;95.00;;;;;;5125099;28;19908;-47
2022/07/02 15:16:47;;;;;;;;;;;27.30;95.10;;;;;;5125020;28;19945;-49
2022/07/02 15:19:13;;;;;;;;;;;27.30;94.80;;;;;;5125452;28;19907;-55
2022/07/02 15:21:43;;;;;;;;;;;27.40;94.90;;;;;;5124991;28;19915;-56
2022/07/02 15:24:13;;;;;;;;;;;27.40;95.00;;;;;;5125243;28;19979;-56
2022/07/02 15:26:42;;;;;;;;;;;27.50;94.90;;;;;;5124943;28;19908;-52
2022/07/02 15:29:09;;;;;;;;;;;27.40;94.60;;;;;;5125343;28;19907;-51
2022/07/02 15:31:38;;;;;;;;;;;27.50;94.60;;;;;;5124920;28;19916;-48
2022/07/02 15:34:04;;;;;;;;;;;27.50;94.40;;;;;;5124599;28;19920;-49